Warning: Javascript must be enabled to use all the features on this page!


Page Loading - Please Wait...

Click to hideNews Bulletins

Current Conditions for Wisconsin: Streamflow -- 254 site(s) found

PROVISIONAL DATA SUBJECT TO REVISION





Customize table to display other current-condition parameters
Station
Number
Station name Date/Time Gage
height,
feet
Dis-
charge,
ft3/s
Long-
term
median
flow
2/5
Group LAKE SUPERIOR BASIN
04024430 NEMADJI RIVER NEAR SOUTH SUPERIOR, WI  02/05 02:00 CST -- Ice 68.0 
      [Primary Stage]  02/05 02:00 CST 5.75 --     --- 
04025500 BOIS BRULE RIVER AT BRULE, WI  02/05 00:00 CST 4.18 Ice 130 
04026005 BOIS BRULE RIVER NEAR LAKE SUPERIOR, WI  02/04 15:30 CST *** *** 180 
04026157 SISKIWIT RIVER AT CTY HWY C NEAR CORNUCOPIA, WI  10/28 13:00 CDT Ssn Ssn     --- 
04026160 SISKIWIT RIVER AT CORNUCOPIA, WI  01/30 09:50 CST 4.73 Ice 7.10 
040263205 WHITTLESEY CREEK NEAR ASHLAND, WI  02/05 02:00 CST -- 18.4 18.0 
    02/05 01:00 CST 1.97 --     --- 
04026390 BEARTRAP CREEK AT U.S. HIGHWAY 2 NEAR ASHLAND, WI  02/05 02:00 CST 5.36 --     --- 
    10/08 09:45 CDT -- 14.0 .53 
04026561 TYLER FORKS RIVER AT STRICKER ROAD NEAR MELLEN, WI  02/05 01:30 CST 4.17 Ice 27.0 
04026740 MARENGO RIVER NEAR MELLEN, WI  02/05 02:00 CST -- Ice     --- 
      [FINAL STAGE]  02/05 02:00 CST 8.42 --     --- 
04027000 BAD RIVER NEAR ODANAH, WI  02/05 01:45 CST 3.62 Ice 165 
04027500 WHITE RIVER NEAR ASHLAND, WI  02/05 01:35 CST 0.99 Ice 182 
04027595 BAD RIVER AT ODANAH, WI  02/05 02:00 CST 2.40 --     --- 
040276505 DENOMIE CREEK AT MAPLE STREET NEAR ODANAH, WI  02/05 02:00 CST 5.34 --     --- 
    01/24 09:15 CST -- 6.00     --- 
463741090521301 ASHLAND BREAKWATER LIGHTHOUSE CHEQUAMEGON BAY, WI 
      [2 min ave (IGLD85)]  02/05 02:00 CST 602.39 --     --- 
464646092052900 SUPERIOR BAY DULUTH SHIP CANAL AT DULUTH, MN  10/01 00:55 CDT Dis Dis     --- 
Group MENOMINEE-OCONTO-PESHTIGO RIVER BASINS
04060993 BRULE RIVER AT US HIGHWAY 2 NEAR FLORENCE, WI  02/05 01:30 CST 5.43 Ice 230 
04062011 BRULE RIVER NEAR COMMONWEALTH, WI  02/05 01:30 CST 6.92 463 392 
04063000 MENOMINEE RIVER NEAR FLORENCE, WI  02/05 02:00 CST 3.76 1,190 1,440 
04063700 POPPLE RIVER NEAR FENCE, WI  02/05 01:45 CST 2.22 Ice 40.0 
04064500 PINE RIVER BELOW PINE R POWERPLANT NR FLORENCE, WI  02/05 01:45 CST 3.14 Ice 197 
04065106 MENOMINEE RIVER AT NIAGARA, WI  02/05 02:00 CST 5.52 1,270 1,729 
04065722 MENOMINEE RIVER NEAR VULCAN, MI  02/05 02:00 CST 6.01 2,010 1,990 
04066003 MENOMINEE RIVER BELOW PEMENE CREEK NR PEMBINE, WI  02/05 02:00 CST 13.31 Ice 2,050 
04066030 MENOMINEE RIVER AT WHITE RAPIDS DAM NEAR BANAT, MI  02/05 01:30 CST 7.29 2,230 2,110 
04066500 PIKE RIVER AT AMBERG, WI  02/05 02:00 CST 2.83 Ice 117 
04066800 MENOMINEE RIVER AT KOSS, MI  02/05 01:00 CST 10.61 Ice 1,890 
04067500 MENOMINEE RIVER NEAR MC ALLISTER, WI  02/05 02:00 CST 10.18 Ice 2,210 
04067958 PESHTIGO RIVER NEAR WABENO, WI  02/05 02:00 CST 4.50 Ice 200 
04069416 PESHTIGO RIVER AT PORTERFIELD, WI  02/05 01:00 CST 8.31 Ice 450 
04069500 PESHTIGO RIVER AT PESHTIGO, WI  02/05 01:00 CST 1.66 Ice 470 
04071000 OCONTO RIVER NEAR GILLETT, WI  02/05 02:00 CST 1.92 Ice 320 
04071765 OCONTO RIVER NEAR OCONTO, WI  02/05 02:00 CST 4.59 Ice 386 
04072076 SILVER CREEK AT FLORIST DRIVE AT ONEIDA, WI  02/05 02:00 CST 2.49 Ice .59 
04072150 DUCK CREEK NEAR HOWARD, WI  02/05 02:00 CST 11.57 --     --- 
445322088281801 BERRY LAKE NEAR SHAWANO, WI  02/05 02:00 CST 92.87 --     --- 
Group FOX-WOLF RIVER BASINS
04073240 CHAFFEE CREEK AT I-39 NEAR COLOMA, WI  02/05 02:00 CST 3.62 9.17 13.0 
04073365 FOX RIVER AT PRINCETON, WI  02/05 02:00 CST 5.35 Ice 590 
04073457 WUERCHES CREEK AT CT HWY B NEAR GREEN LAKE, WI  02/05 02:02 CST 4.72 Ice     --- 
04073458 ROY CREEK AT ROY CREEK ROAD NEAR GREEN LAKE, WI  02/05 02:02 CST 4.51 Ice     --- 
040734605 GREEN LAKE SW INLET @ CT HIGHWY K NR GREEN LAKE,WI 
      [(2)]  02/05 01:00 CST 6.27 --     --- 
      [(4)]  02/05 01:00 CST -- 30.4 11.0 
04073462 WHITE CREEK AT SPRING GROVE ROAD NR GREEN LAKE, WI  02/05 02:00 CST 4.12 Ice .89 
04073466 SILVER CREEK AT SPAULDING ROAD NEAR GREEN LAKE, WI  02/05 02:00 CST -- 11.5 27.0 
      [Stage]  02/05 02:02 CST 6.72 --     --- 
04073473 PUCHYAN RIVER DS N. LAWSON DRIVE NR GREEN LAKE, WI  02/05 02:00 CST 7.14 42.0 37.0 
04073500 FOX RIVER AT BERLIN, WI  02/05 02:00 CST 9.74 Ice 640 
04074950 WOLF RIVER AT LANGLADE, WI  02/05 02:00 CST 8.36 Ice 280 
04077630 RED RIVER AT MORGAN ROAD NEAR MORGAN, WI  02/05 02:00 CST 6.08 Ice 92.0 
04078500 EMBARRASS RIVER NEAR EMBARRASS, WI  02/05 02:00 CST 3.04 Ice 133 
04079000 WOLF RIVER AT NEW LONDON, WI  02/05 02:00 CST -- Ice 880 
      [Primary Stage]  02/05 02:00 CST 3.19 --     --- 
04080798 TOMORROW RIVER NEAR NELSONVILLE, WI  02/05 02:00 CST 8.49 24.2 24.0 
04081500 WOLF RIVER AT WINNECONNE, WI  02/05 02:00 CST 7.89 2,880     --- 
04082400 FOX RIVER AT OSHKOSH, WI  02/05 02:00 CST 5.24 --     --- 
      [(4)]  02/05 02:00 CST -- 3,450 2,510 
04082500 LAKE WINNEBAGO AT OSHKOSH, WI  02/05 02:00 CST 1.87 --     --- 
04083515 HAWTHORNE DR STORM SEWER AT FOND DU LAC, WI 
      [BUBBLER, BIRCH]  03/29 07:00 CDT 0.07 --     --- 
      [BUBBLER, HOLLY]  03/29 07:00 CDT 0.00 --     --- 
04083545 FOND DU LAC RIVER @ W. ARNDT ST. AT FOND DU LAC,WI  02/05 02:00 CST 2.05 191     --- 
04084255 LAKE WINNEBAGO NEAR STOCKBRIDGE, WI  02/05 02:00 CST 1.77 --     --- 
04084445 FOX RIVER AT APPLETON, WI  02/05 02:00 CST -- 4,680 3,620 
      [PIER]  02/05 02:00 CST 5.66 --     --- 
04084911 PLUM CREEK NEAR WRIGHTSTOWN, WI  02/05 02:00 CST 2.39 Ice 2.10 
04085068 ASHWAUBENON CREEK NEAR LITTLE RAPIDS, WI  02/05 02:00 CST 3.07 --     --- 
      [(2)]  02/05 02:00 CST -- Ice 2.90 
040850684 ASHWAUBENON CREEK AT GRANT ST NR WEST DEPERE, WI  02/05 02:00 CST 3.78 Ice 3.20 
04085074 DUTCHMAN CREEK AT CYRUS ST NR ASHWAUBENON, WI  02/05 02:00 CST 4.41 Ice .77 
04085078 DUTCHMAN CREEK AT HANSEN RD AT ASHWAUBENON, WI  02/05 02:00 CST 4.51 Ice 5.90 
04085108 EAST RIVER @ CNTY TRUNK HIGHWAY ZZ NR GREENLEAF,WI  02/05 02:00 CST -- Ice 9.60 
      [BUBBLER Stage]  02/05 02:00 CST 4.61 --     --- 
040851385 FOX RIVER AT OIL TANK DEPOT AT GREEN BAY, WI 
      [(2)]  02/05 01:20 CST -- 6,050 4,030 
      [Stage IGLD85]  02/05 01:20 CST 578.44 --     --- 
434840089000001 GREEN LAKE AT GREEN LAKE, WI  02/05 01:00 CST 6.27 --     --- 
441520088045001 GLRI EAST RIVER WATERWAY 3 NEAR GREENLEAF, WI 
      [COMBINED]  10/01 00:45 CDT -- 0.0000     --- 
441520088045002 GLRI EAST RIVER TILE 1 NEAR GREENLEAF, WI  10/01 00:45 CDT -- 0.00000     --- 
441546088082001 GLRI EAST RIVER WATERWAY NUMBER 2 NR GREENLEAF, WI  09/28 15:00 CDT 0.00 0.0000     --- 
441605088115701 TRT WETLAND TWO SURFACE INLET NR KAUKAUNA, WI  02/05 02:00 CST -0.01 0.00     --- 
441605088115702 TRT WETLAND TWO DRAIN TILE INLET NR KAUKAUNA, WI  02/05 02:02 CST 0.12 --     --- 
442114088085701 GLRI WATERWAY NUMBER 5 NR WRIGHTSTOWN, WI  02/05 02:00 CST 0.03 --     --- 
      [FINAL]  02/05 02:00 CST -- 0.00638     --- 
442119088085501 GLRI WATERWAY NUMBER 4 NR WRIGHTSTOWN, WI  02/05 01:45 CST -0.00 --     --- 
      [COMBINED]  02/05 01:45 CST -- 0.0000     --- 
444049087424302 GLRI BIOREACTOR INLET NR DUVALL,WI  02/05 02:02 CST 1.15 0.00     --- 
444049087424303 GLRI BIOREACTOR OUTLET NR DUVALL, WI  02/05 02:02 CST 0.20 --     --- 
      [FIANL, PRIMARY]  02/05 02:02 CST -- 0.00     --- 
Group LAKE MICHIGAN BASIN
04085200 KEWAUNEE RIVER NEAR KEWAUNEE, WI  02/05 02:00 CST 8.87 36.6 25.0 
04085427 MANITOWOC RIVER AT MANITOWOC, WI  02/05 02:00 CST 4.94 203 83.0 
04086000 SHEBOYGAN RIVER AT SHEBOYGAN, WI  02/05 02:00 CST 3.29 Ice 100 
04086500 CEDAR CREEK NEAR CEDARBURG, WI  02/05 01:15 CST 5.92 Bkw 34.0 
04086600 MILWAUKEE RIVER NEAR CEDARBURG, WI  02/05 02:00 CST 7.70 --     --- 
      [(3)]  02/05 02:00 CST -- Ice 235 
040869416 LINCOLN CREEK @ SHERMAN BOULEVARD AT MILWAUKEE, WI  02/05 02:00 CST 3.95 Ice 3.70 
04087000 MILWAUKEE RIVER AT MILWAUKEE, WI 
      [(2)]  02/05 01:45 CST -- Bkw 210 
      [15-min Interval]  02/05 01:45 CST 2.11 --     --- 
04087030 MENOMONEE RIVER AT MENOMONEE FALLS, WI  02/05 01:45 CST 3.44 Bkw 12.0 
04087050 LITTLE MENOMONEE RIVER NEAR FREISTADT, WI  02/05 02:00 CST 2.24 Bkw 1.80 
04087070 LITTLE MENOMONEE RIVER AT MILWAUKEE, WI  02/05 02:00 CST 3.93 8.73 5.60 
0408708567 UNDERWOOD CREEK AT UNNAMED ROAD, ELM GROVE, WI  12/13 13:00 CST Dis Dis     --- 
040870860 UNDERWOOD CREEK AT W BLUE MOUND RD, ELM GROVE, WI  12/13 12:45 CST Dis --     --- 
      [(3)]  12/13 12:45 CST -- Dis     --- 
04087087 UNDERWOOD CREEK AT 115TH STREET AT WAUWATOSA, WI  12/13 13:00 CST Dis Dis     --- 
040870876 UNDERWOOD CR ON BIKE PATH/Rt 100, WAUWATOSA, WI.  12/13 13:15 CST 2.69 7.84 17.0 
04087088 UNDERWOOD CREEK AT WAUWATOSA, WI  02/05 02:00 CST 8.32 Bkw 5.50 
04087119 HONEY CREEK AT WAUWATOSA, WI  02/05 02:00 CST 9.76 Bkw 2.10 
04087120 MENOMONEE RIVER AT WAUWATOSA, WI  02/05 01:45 CST 2.26 Bkw 35.0 
04087142 MENOMONEE RIVER AT 16TH STREET AT MILWAUKEE, WI  02/05 02:00 CST 12.69 --     --- 
      [Q-Vel]  02/05 02:00 CST -- 70.0 69.0 
040871473 WILSON PARK CREEK AT GMIA INFALL AT MILWAUKEE, WI  02/05 01:05 CST 10.62 0.03 .25 
040871475 WILSON PARK CREEK @ GMIA OUTFALL #7 @ MILWAUKEE,WI  01/01 00:15 CST 10.88 --     --- 
    02/05 01:15 CST -- 0.45 .86 
040871476 HOLMES AVE CRK TRIB @ GMIA OUTFALL #1 AT MILWAUKEE  02/05 01:00 CST 0.10 0.00     --- 
040871488 WILSON PARK CK @ ST. LUKES HOSPITAL @ MILWAUKEE,WI  02/05 01:15 CST 11.27 3.47 3.80 
04087159 KINNICKINNIC RIVER @ S. 11TH STREET @ MILWAUKEE,WI  02/05 02:00 CST 6.28 Bkw 6.70 
04087161 KINNICKINNIC RIVER AT S. 1ST ST AT MILWAUKEE, WI  05/04 10:00 CDT 4.13 --     --- 
04087170 MILWAUKEE RIVER AT MOUTH AT MILWAUKEE, WI  02/05 02:00 CST 8.39 --     --- 
      [FINAL]  02/05 02:00 CST -- Eqp 289 
04087204 OAK CREEK AT SOUTH MILWAUKEE, WI  02/05 02:00 CST 2.40 Ice 6.20 
04087214 ROOT RIVER AT GRANGE AVENUE AT GREENDALE, WI  02/05 02:00 CST 10.58 Ice 3.30 
04087220 ROOT RIVER NEAR FRANKLIN, WI  02/05 02:00 CST 1.99 Ice 12.0 
04087233 ROOT RIVER CANAL NEAR FRANKLIN, WI  02/05 02:00 CST 2.44 Ice 14.0 
04087234 ROOT RIVER AT 60TH ST NEAR CALEDONIA, WI  02/05 02:00 CST 4.00 Bkw 43.0 
04087240 ROOT RIVER AT RACINE, WI  02/05 02:00 CST 2.56 Ice 41.0 
04087257 PIKE RIVER NEAR RACINE, WI  02/05 02:00 CST 1.35 Ice 11.0 
430528087571001 GREEN TECH BIOFILTER OUTLET AT MILWAUKEE, WI  02/05 02:00 CST 0.00 --     --- 
430529087571001 GREEN TECH BIOFILTER INLET AT MILWAUKEE, WI  02/05 02:02 CST 0.00 --     --- 
442155087330001 DISCOVERY FARMS WATERWAY KD2 NEAR KEWAUNEE, WI  02/05 02:00 CST 0.00 0.0000     --- 
442405087414401 DISCOVERY FARMS WATERWAY KD1 NEAR KEWAUNEE, WI  02/05 02:00 CST -- 0.0000     --- 
      [BUBBLER]  02/05 02:00 CST 0.00 --     --- 
Group ST. CROIX RIVER BASIN
05331833 NAMEKAGON RIVER AT LEONARDS, WI  02/05 02:00 CST 1.91 Ice 94.0 
05333500 ST. CROIX RIVER NEAR DANBURY, WI  02/05 02:00 CST 2.22 Ice 870 
05340500 ST. CROIX RIVER AT ST. CROIX FALLS, WI  02/05 02:00 CST 3.15 2,550 2,080 
05341752 WILLOW RIVER @ WILLOW R STATE PARK NR BURKHARDT,WI  02/05 02:00 CST 3.67 97.9 119 
05342000 KINNICKINNIC RIVER NEAR RIVER FALLS, WI  02/05 02:00 CST 8.15 Ice 97.0 
05344490 ST. CROIX RIVER AT PRESCOTT, WI  02/05 01:15 CST 25.26 Ice 2,780 
05344500 MISSISSIPPI RIVER AT PRESCOTT, WI  02/05 01:15 CST 25.33 --     --- 
    02/05 01:10 CST -- Ice 8,050 
Group CHIPPEWA RIVER BASIN
05356000 CHIPPEWA RIVER AT BISHOPS BRIDGE NEAR WINTER, WI  02/05 02:00 CST 5.16 739 766 
05356500 CHIPPEWA RIVER NEAR BRUCE, WI  02/05 02:00 CST 4.26 Ice 1,000 
05357206 ALLEQUASH CREEK SITE NO. 3 NR BOULDER JUNCTION, WI 
      [DOWNSTREAM]  02/05 02:00 CST -- 2.85 3.50 
      [Gage Height]  02/05 02:00 CST 0.37 --     --- 
05357215 ALLEQUASH CREEK @ CT HWY M NR BOULDER JUNCTION, WI  02/05 02:00 CST -- Ice 9.70 
      [Gage Height]  02/05 02:00 CST 1.49 --     --- 
05357225 STEVENSON CREEK @ CT HWY M NR BOULDER JUNCTION, WI  02/05 02:00 CST -- Ice 2.60 
      [Gage Height]  02/05 02:00 CST 7.26 --     --- 
05357230 NORTH CREEK AT TROUT LAKE NEAR BOULDER JUNCTION,WI  02/05 02:00 CST -- Ice 2.60 
      [Gage Height]  02/05 02:00 CST 8.17 --     --- 
05357245 TROUT RIVER AT TROUT LAKE NEAR BOULDER JUNCTION,WI  02/05 02:00 CST -- 38.3 36.0 
      [Gage Height]  02/05 02:00 CST 1.12 --     --- 
05357335 BEAR RIVER NEAR MANITOWISH WATERS, WI  02/05 02:15 CST 4.85 Ice 45.0 
05359500 SOUTH FORK FLAMBEAU RIVER NEAR PHILLIPS, WI  02/05 01:45 CST 5.91 Ice 257 
05360500 FLAMBEAU RIVER NEAR BRUCE, WI  02/05 02:00 CST 6.70 1,860 1,060 
05362000 JUMP RIVER AT SHELDON, WI  02/05 02:00 CST 4.35 Ice 75.0 
05363600 NF YELLOW R AT YELLOW RIVER RD NR PERKINSTOWN, WI  02/05 01:00 CST -- Ice 4.80 
      [Gage height, feet , Averaged]  02/05 01:00 CST 9.42 --     --- 
05364128 DRYWOOD CREEK AT COVERED FOOTBRIDGE NR CADOTT, WI  02/05 02:00 CST 4.80 Ice 10.0 
05365500 CHIPPEWA RIVER AT CHIPPEWA FALLS, WI  02/05 02:00 CST 4.28 3,320 2,400 
05365550 CHIPPEWA RIVER BELOW DELLS DAM AT EAU CLAIRE, WI  02/05 02:00 CST -- 3,310     --- 
      [RADAR]  02/05 02:00 CST 5.31 --     --- 
05366800 CHIPPEWA R AT GRAND AVE AT EAU CLAIRE, WI  02/05 02:00 CST 4.71 3,990 3,600 
05367500 RED CEDAR RIVER NEAR COLFAX, WI  02/05 02:00 CST 3.82 Ice 486 
05368000 HAY RIVER AT WHEELER, WI  02/05 02:00 CST 4.57 Ice 200 
05369000 RED CEDAR RIVER AT MENOMONIE, WI  02/05 02:00 CST 6.55 997 878 
05369500 CHIPPEWA RIVER AT DURAND, WI  02/05 01:00 CST 4.80 Ice 4,290 
05370000 EAU GALLE RIVER AT SPRING VALLEY, WI  02/05 02:00 CST -- 16.1 15.0 
      [(2)]  02/05 02:00 CST 12.13 --     --- 
Group TREMPEALEAU-BLACK-LA CROSSE RIVER BASINS
05378500 MISSISSIPPI RIVER AT WINONA, MN  02/05 01:45 CST 5.64 --     --- 
    02/05 01:15 CST -- Ice 14,399 
05379400 TREMPEALEAU RIVER AT ARCADIA, WI  02/05 02:00 CST -- Ice 240 
    12/31 23:00 CST 723.44 --     --- 
      [Current Stage]  02/05 02:00 CST 3.99 --     --- 
05379500 TREMPEALEAU RIVER AT DODGE, WI  02/05 02:00 CST -- Ice 270 
      [Current Stage]  02/05 02:00 CST 6.33 --     --- 
05381000 BLACK RIVER AT NEILLSVILLE, WI  02/05 02:00 CST 3.62 Ice 67.0 
053813595 BLACK RIVER DS ST HWY 54 AT BLACK RIVER FALLS, WI  02/05 02:00 CST 36.23 483 293 
05382000 BLACK RIVER NEAR GALESVILLE, WI  02/05 01:00 CST -- Ice 580 
      [Final Stage]  02/05 01:00 CST 4.86 --     --- 
05382255 STILLWELL CREEK AT SIXTEENTH COURT NEAR TOMAH, WI  02/05 02:00 CST 1.30 Ice 1.70 
05382257 STILLWELL CREEK AT YARD ROAD NEAR TOMAH, WI  02/05 02:00 CST 1.82 Ice 1.70 
05382267 LA CROSSE RIVER @ CNTY TRUNK HIGHWY BB NR TOMAH,WI  02/05 02:00 CST 6.22 Ice 64.0 
05382284 SILVER CREEK AT STATE HIGHWAY 21 NEAR ANGELO, WI  02/05 02:00 CST 6.55 Ice 33.0 
05382325 LA CROSSE RIVER AT SPARTA, WI  02/05 01:15 CST 3.67 Ice 134 
05383075 LA CROSSE RIVER NEAR LA CROSSE, WI  02/05 02:00 CST 4.43 Ice 300 
05386400 MISSISSIPPI RIVER AT BROWNSVILLE, MN  02/05 01:45 CST 31.31 --     --- 
05389500 Mississippi River at McGregor, IA 
      [stage-only period of record]  02/05 01:45 CST 7.47 --     --- 
Group WISCONSIN RIVER BASIN
05390500 ANVIL LAKE NEAR EAGLE RIVER, WI 
      [(2)]  02/05 01:30 CST 94.19 --     --- 
05391000 WISCONSIN RIVER @ RAINBOW LAKE NR LAKE TOMAHAWK,WI  02/05 02:00 CST 2.30 729 803 
05393500 SPIRIT RIVER AT SPIRIT FALLS, WI  02/05 01:30 CST 1.99 Ice 14.0 
05394500 PRAIRIE RIVER NEAR MERRILL, WI  02/05 02:00 CST 2.21 Ice 82.0 
05395000 WISCONSIN RIVER AT MERRILL, WI  02/05 02:00 CST 4.97 2,150 1,990 
05396000 BIG RIB RIVER AT RIB FALLS, WI  02/05 02:00 CST 2.61 Ice 43.0 
05397500 EAU CLAIRE RIVER AT KELLY, WI  02/05 02:00 CST 1.24 Ice 72.0 
05398000 WISCONSIN RIVER AT ROTHSCHILD, WI  02/05 01:00 CST 13.62 --     --- 
      [SLOPE-SLPQ]  02/05 01:00 CST -- 2,490 2,500 
05398100 WISCONSIN RIVER AT MOSINEE, WI  02/05 01:00 CST 11.83 --     --- 
05399500 BIG EAU PLEINE RIVER AT STRATFORD, WI  02/05 02:00 CST 3.05 Ice 12.0 
05400625 LITTLE PLOVER RIVER NEAR PLOVER, WI  02/05 02:00 CST 3.73 Ice 4.90 
05400760 WISCONSIN RIVER AT WISCONSIN RAPIDS, WI  02/05 01:30 CST 2.80 --     --- 
      [(2)]  02/05 01:00 CST -- 2,930     --- 
05401034 S.BR.TENMILE CREEK NEAR BANCROFT, WI  02/05 02:00 CST 3.83 Ice 11.0 
05401050 TENMILE CREEK NEAR NEKOOSA, WI  02/05 02:00 CST 4.81 Ice 33.0 
05401063 LAKE HURON NEAR PLAINFIELD, WI  02/05 02:00 CST 97.98 --     --- 
05401065 LONG LAKE NEAR PLAINFIELD, WI  02/05 01:45 CST 16.47 --     --- 
05401067 PLAINFIELD LAKE NEAR PLAINFIELD, WI  08/10 18:00 CDT Dis --     --- 
05401514 BIG ROCHE A CRI CREEK AT HWY G NR LEOLA, WI  02/05 02:00 CST 3.79 Ice 20.0 
05402000 YELLOW RIVER AT BABCOCK, WI  02/05 02:00 CST 2.46 Ice     --- 
05403000 YELLOW RIVER AT NECEDAH, WI  02/05 02:00 CST 9.98 Ice 61.0 
05403202 WISCONSIN R BELOW CASTLE ROCK DAM NR MAUSTON, WI  02/05 02:15 CST 11.15 --     --- 
05403500 LEMONWEIR RIVER AT NEW LISBON, WI  02/05 02:00 CST 4.26 Ice 160 
05404000 WISCONSIN RIVER NEAR WISCONSIN DELLS, WI  02/05 02:00 CST 3.40 Ice 5,000 
05404129 BARABOO RIVER AT LA VALLE, WI  02/05 02:00 CST 5.88 --     --- 
05404140 W BRANCH BIG CREEK AT CLARK RD NR LA VALLE, WI  02/05 02:00 CST 3.39 Ice 8.20 
05404147 BIG CREEK OUTLET AT LAKE REDSTONE NR LA VALLE, WI  02/05 01:45 CST -- 10.1 23.0 
      [Bubbler Stage]  02/05 01:45 CST 2.57 --     --- 
05404150 E BRANCH BIG CREEK AT LAVALLE RD NR LA VALLE, WI  02/05 02:00 CST 3.12 Bkw 4.90 
054041665 BARABOO RIVER AT MAIN STREET AT REEDSBURG, WI  02/05 02:00 CST 5.74 --     --- 
05404500 DEVILS LAKE NEAR BARABOO, WI  02/05 02:00 CST 7.76 --     --- 
05405000 BARABOO RIVER NEAR BARABOO, WI  02/05 02:00 CST 8.05 Ice 220 
05406457 BLACK EARTH CREEK NR BREWERY RD AT CROSS PLAINS,WI  02/05 02:00 CST 2.07 Ice 12.0 
05406469 BREWERY CREEK-UPSTREAM SITE-AT CROSS PLAINS, WI  02/05 02:00 CST 2.11 Ice 2.60 
05406479 BLACK EARTH CK NR TREATMENT PLNT @ CROSS PLAINS,WI  02/05 02:00 CST 2.65 Ice 23.0 
05406500 BLACK EARTH CREEK AT BLACK EARTH, WI  02/05 02:00 CST 2.10 Ice 29.0 
05407000 WISCONSIN RIVER AT MUSCODA, WI  02/05 01:00 CST -- Ice 6,500 
      [FINAL]  02/05 01:00 CST 3.71 --     --- 
05407468 KICKAPOO R @ ST HWY 131 AT ONTARIO, WI  02/05 02:00 CST 8.72 Ice 69.0 
05408000 KICKAPOO RIVER AT LA FARGE, WI  02/04 08:05 CST 3.76 Ice 120 
05410490 KICKAPOO RIVER AT STEUBEN, WI  02/05 01:45 CST 7.29 Ice 420 
433821090063801 DISCOVERY FARMS WATERWAY RS2 NEAR MAUSTON, WI  02/05 02:00 CST -0.00 0.0000     --- 
433939090050501 DISCOVERY FARMS WATERWAY RS1 NEAR MAUSTON, WI  02/05 02:00 CST -0.00 0.0000     --- 
435857089325301 PLEASANT LAKE NEAR WESTFIELD, WI  02/05 02:00 CST 13.47 --     --- 
445537090022401 DISCOVERY FARMS WATERWAY MT2 NEAR EDGAR, WI 
      [PRIMARY, BUBBLER]  02/05 02:02 CST 0.06 --     --- 
      [PRIMARY]  02/05 02:02 CST -- 0.0057     --- 
450157090060701 DISCOVERY FARMS WATERWAY MT1 NEAR ATHENS, WI 
      [PRIMARY, BUBBLER]  02/05 02:00 CST 0.00 --     --- 
      [PRIMARY]  02/05 02:00 CST -- 0.0000     --- 
451021089064901 DISCOVERY FARMS WATERWAY AO1 NEAR ANTIGO, WI  02/05 02:03 CST 41.76 --     --- 
    02/03 10:34 CST -- 45.203     --- 
451207089041801 DISCOVERY FARMS WATERWAY AO2 NEAR ANTIGO, WI  02/05 02:02 CST 0.17 0.10516     --- 
451337089035401 DISCOVERY FARMS WATERWAY AO3 NEAR ANTIGO, WI  02/05 02:00 CST 0.00 0.0000     --- 
Group GRANT-PLATTE-GALENA RIVER BASINS
05411500 Mississippi River at Clayton, IA  02/05 01:45 CST 11.85 --     --- 
05413500 GRANT RIVER AT BURTON, WI  02/05 01:15 CST -- Ice 110 
      [PRIMARY STAGE]  02/05 01:15 CST 5.96 --     --- 
05414000 PLATTE RIVER NEAR ROCKVILLE, WI  02/05 01:15 CST -- Ice 59.0 
      [Primary Stage]  02/05 01:15 CST 4.10 --     --- 
Group ROCK RIVER BASIN
05423500 SOUTH BRANCH ROCK RIVER AT WAUPUN, WI  02/05 02:00 CST 2.32 Ice 8.70 
05424057 ROCK RIVER AT HORICON, WI  02/05 01:00 CST Eqp --     --- 
      [PRIMARY, Q-Vel]  02/05 01:00 CST -- Eqp 159 
05424157 ROCK RIVER NEAR LEBANON, WI  02/05 02:00 CST 5.82 --     --- 
05425500 ROCK RIVER AT WATERTOWN, WI  02/05 02:00 CST 2.19 Ice 249 
05425912 BEAVERDAM RIVER AT BEAVER DAM, WI  02/05 02:00 CST 839.57 77.8 78.0 
05426000 CRAWFISH RIVER AT MILFORD, WI  02/05 02:00 CST 2.72 Bkw 190 
05426031 ROCK RIVER AT JEFFERSON, WI  02/05 02:00 CST 4.94 --     --- 
05426067 BARK RIVER AT NAGAWICKA ROAD AT DELAFIELD, WI  02/05 02:00 CST 12.46 Ice 23.0 
05426250 BARK RIVER NEAR ROME, WI  02/05 02:00 CST 2.05 Ice 70.0 
05427085 ROCK RIVER AT ROBERT STREET AT FORT ATKINSON, WI  02/05 01:00 CST Eqp Eqp 1,100 
05427235 LAKE KOSHKONONG NEAR NEWVILLE, WI  02/05 02:00 CST 6.80 --     --- 
05427530 ROCK RIVER AT NEWVILLE, WI  02/05 01:00 CST 3.06 --     --- 
      [(4)]  02/05 01:00 CST -- 1,670 1,850 
05427718 YAHARA RIVER AT WINDSOR, WI  02/05 02:00 CST 1.19 Ice 17.0 
05427850 YAHARA RIVER AT STATE HIGHWAY 113 AT MADISON, WI  02/05 01:00 CST 8.66 --     --- 
      [(4)]  02/05 01:00 CST -- 63.9 60.0 
05427880 SIXMILE CREEK AT STATE HIGHWAY 19 NEAR WAUNAKEE,WI  02/05 02:00 CST 2.63 Ice 9.00 
05427910 SIXMILE CREEK @ COUNTY TRNK HGHWY M NR WAUNAKEE,WI  02/05 00:00 CST 9.43 --     --- 
      [PRIMARY]  02/04 23:55 CST -- 33.1 22.0 
05427927 DORN (SPRING) CREEK @ CT HIGHWAY Q NR WAUNAKEE, WI  02/05 02:00 CST 0.32 4.37 4.20 
05427930 DORN (SPRING) CREEK AT CT HIGHWAY M NR WAUNAKEE,WI  02/05 01:00 CST 9.81 --     --- 
      [(4)]  02/05 01:00 CST -- 0.74 7.50 
05427943 PHEASANT BRANCH AT AIRPORT ROAD NEAR MIDDLETON, WI  02/05 02:09 CST 4.01 0.95 1.10 
054279465 S FORK PHEASANT BRANCH @ DEMING WAY @ MIDDLETON,WI  02/05 02:00 CST 2.00 0.01 .20 
05427948 PHEASANT BRANCH AT MIDDLETON, WI  02/05 02:00 CST 3.48 1.60 1.70 
05427965 SPRING HARBOR STORM SEWER AT MADISON, WI  02/05 02:00 CST -- 0.00 .11 
      [BUBBLER]  02/05 02:00 CST 0.42 --     --- 
05428000 LAKE MENDOTA AT MADISON, WI 
      [(4)]  02/05 01:00 CST 8.50 --     --- 
05428500 YAHARA RIVER AT EAST MAIN STREET AT MADISON, WI  02/05 01:00 CST 4.82 248 140 
05429000 LAKE MONONA AT MADISON, WI  02/05 02:00 CST 4.47 --     --- 
05429369 SWAN CREEK AT LALOR ROAD NEAR FITCHBURG, WI  02/05 02:00 CST 5.58 1.54 .77 
05429485 LAKE WAUBESA AT MC FARLAND, WI  02/05 00:00 CST 4.10 --     --- 
05429500 YAHARA RIVER AT MC FARLAND, WI 
      [(5)]  02/04 23:45 CST -- 306 142 
05429700 YAHARA RIVER @ FORTON STREET BRIDGE @ STOUGHTON,WI  02/05 01:00 CST 6.37 419 292 
05430150 BADFISH CREEK NEAR COOKSVILLE, WI  02/05 02:00 CST 5.01 Bkw 96.0 
05430175 YAHARA RIVER NEAR FULTON, WI  02/05 02:00 CST 4.71 Ice 337 
05430500 ROCK RIVER AT AFTON, WI  02/05 02:00 CST 5.39 Ice 1,120 
05431016 JACKSON CREEK AT MOUND ROAD NEAR ELKHORN, WI  02/05 02:00 CST 8.46 5.84 7.20 
05431022 DELAVAN LAKE OUTLET AT BORG ROAD NEAR DELAVAN, WI  02/05 01:00 CST 5.26 5.05     --- 
05431486 TURTLE CREEK AT CARVERS ROCK ROAD NEAR CLINTON, WI  02/05 02:00 CST 4.06 Bkw 84.0 
05432500 PECATONICA RIVER AT DARLINGTON, WI  02/05 02:00 CST 2.99 Ice 110 
05433000 EAST BRANCH PECATONICA RIVER NR BLANCHARDVILLE, WI  02/05 02:00 CST 5.10 Ice 100 
05434500 PECATONICA RIVER AT MARTINTOWN, WI  02/05 02:00 CST 6.97 Ice 485 
05435943 BADGER MILL CREEK AT VERONA, WI  02/05 02:00 CST -- 8.22 10.0 
      [Current Stage]  02/05 02:00 CST 4.18 --     --- 
05435950 SUGAR RIVER NEAR VERONA, WI  02/05 02:00 CST 2.89 Ice 54.0 
05436500 SUGAR RIVER NEAR BRODHEAD, WI  02/05 02:00 CST 1.26 Ice 254 
05438283 PISCASAW CREEK NEAR WALWORTH, WI  02/05 02:00 CST 5.08 1.60 2.00 
425715089164700 LAKE KEGONSA AT BARBER DRIVE NEAR STOUGHTON, WI  02/05 01:00 CST 2.83 --     --- 
430338089295701 DETENTION POND OUTLET AT MEMORIAL HS @ MADISON, WI  02/05 02:14 CST 0.05 0.00     --- 
Group ILLINOIS-FOX RIVER BASINS
05543830 FOX RIVER AT WAUKESHA, WI  02/05 02:00 CST 3.01 Bkw 54.0 
05544200 MUKWONAGO RIVER AT MUKWONAGO, WI  02/05 02:00 CST 2.37 Ice 44.0 
05544348 FOX RIVER AT WATERFORD DAM, AT WATERFORD, WI  02/05 01:45 CST 1.69 --     --- 
05544385 MUSKEGO (BIG MUSKEGO) LAKE OUTLET NR WIND LAKE, WI 
      HEADWATER, [Headwater]  02/05 01:45 CST 11.90 --     --- 
      TAILWATER (BASE), [Tailwater]  02/05 01:45 CST 8.39 --     --- 
05544475 FOX RIVER AT ROCHESTER, WI  02/05 01:45 CST 4.50 --     --- 
055451345 WHITE RIVER AT CENTER STREET AT LAKE GENEVA, WI  02/05 02:00 CST 8.07 16.3 37.0 
05545750 FOX RIVER NEAR NEW MUNSTER, WI  02/05 02:00 CST 6.737 575 558 
423000088164401 ELIZABETH LAKE AT TWIN LAKES, WI-IL 
      [Above Sea Level]  02/05 01:30 CST 794.16 --     --- 
423525088260400 GENEVA LAKE AT LAKE GENEVA, WI  02/05 02:00 CST 2.49 --     --- 
424848088083100 WIND LAKE AT OUTLET AT WIND LAKE, WI 
      HEADWATER, [Headwater]  02/05 01:15 CST 7.65 --     --- 
      TAILWATER, [Tailwater]  02/05 01:15 CST 4.98 --     --- 

Data status codes:
  ***     Temporarily unavailable
  --     Parameter not determined
  Bkw     Flow affected by backwater
  Dis     Data-collection discontinued
  Eqp     Equipment malfunction
  Ice     Ice affected
  Ssn     Parameter monitored seasonally